createdAt,value
2022-08-23T00:01:51.713Z,18.99
2022-08-23T00:04:30.396Z,18.42
2022-08-23T00:07:02.719Z,18.49
2022-08-23T00:09:29.491Z,17.78
2022-08-23T00:11:56.023Z,18.72
2022-08-23T00:14:30.979Z,15.69
2022-08-23T00:16:59.850Z,18.57
2022-08-23T00:19:27.522Z,18.18
2022-08-23T00:21:56.755Z,18.21
2022-08-23T00:24:25.004Z,16.45
2022-08-23T00:27:13.176Z,18.40
2022-08-23T00:29:44.951Z,18.32
2022-08-23T00:32:14.994Z,18.26
2022-08-23T00:34:41.464Z,16.76
2022-08-23T00:37:08.965Z,18.20
2022-08-23T00:39:35.975Z,17.02
2022-08-23T00:42:31.158Z,18.13
2022-08-23T00:45:19.555Z,17.93
2022-08-23T00:47:46.749Z,17.67
2022-08-23T00:50:39.461Z,17.97
2022-08-23T00:53:16.406Z,17.39
2022-08-23T00:55:46.208Z,16.69
2022-08-23T00:58:18.480Z,17.81
2022-08-23T01:00:45.921Z,14.98
2022-08-23T01:03:13.734Z,17.35
2022-08-23T01:05:49.602Z,16.85
2022-08-23T01:08:16.299Z,14.90
2022-08-23T01:10:49.721Z,17.60
2022-08-23T01:13:25.413Z,15.42
2022-08-23T01:16:01.262Z,17.26
2022-08-23T01:18:30.198Z,16.46
2022-08-23T01:21:21.862Z,15.22
2022-08-23T01:23:53.465Z,17.21
2022-08-23T01:26:22.439Z,16.66
2022-08-23T01:28:49.944Z,15.55
2022-08-23T01:31:18.213Z,16.93
2022-08-23T01:33:48.790Z,16.74
2022-08-23T01:36:16.448Z,16.12
2022-08-23T01:38:43.183Z,16.54
2022-08-23T01:41:09.885Z,15.64
2022-08-23T01:43:36.497Z,16.52
2022-08-23T01:46:15.775Z,14.75
2022-08-23T01:48:42.159Z,16.23
2022-08-23T01:51:09.313Z,15.74
2022-08-23T01:53:35.883Z,16.41
2022-08-23T01:56:05.231Z,16.85
2022-08-23T01:58:33.036Z,16.82
2022-08-23T02:01:00.491Z,15.92
2022-08-23T02:03:28.579Z,13.97
2022-08-23T02:05:56.012Z,16.18
2022-08-23T02:08:41.111Z,16.73
2022-08-23T02:11:10.375Z,16.66
2022-08-23T02:13:39.116Z,15.18
2022-08-23T02:16:05.749Z,14.56
2022-08-23T02:18:32.234Z,16.47
2022-08-23T02:20:59.611Z,16.43
2022-08-23T02:23:26.935Z,16.38
2022-08-23T02:25:54.155Z,14.42
2022-08-23T02:28:22.078Z,16.31
2022-08-23T02:30:48.978Z,16.31
2022-08-23T02:33:16.874Z,15.60
2022-08-23T02:35:44.523Z,15.36
2022-08-23T02:38:12.872Z,15.04
2022-08-23T02:40:40.960Z,13.03
2022-08-23T02:43:07.963Z,16.20
2022-08-23T02:45:34.781Z,14.28
2022-08-23T02:48:01.617Z,14.40
2022-08-23T02:50:28.318Z,15.38
2022-08-23T02:52:57.289Z,15.64
2022-08-23T02:55:23.852Z,14.92
2022-08-23T02:57:50.303Z,16.07
2022-08-23T03:00:19.043Z,16.03
2022-08-23T03:02:46.458Z,16.00
2022-08-23T03:05:14.443Z,15.63
2022-08-23T03:07:41.559Z,15.93
2022-08-23T03:10:09.346Z,14.84
2022-08-23T03:12:36.177Z,15.91
2022-08-23T03:15:04.212Z,15.45
2022-08-23T03:17:32.337Z,14.84
2022-08-23T03:19:59.430Z,15.28
2022-08-23T03:22:26.459Z,15.02
2022-08-23T03:24:53.051Z,13.65
2022-08-23T03:27:19.587Z,14.96
2022-08-23T03:29:46.090Z,14.78
2022-08-23T03:32:13.499Z,15.09
2022-08-23T03:34:42.059Z,15.81
2022-08-23T03:37:08.554Z,15.24
2022-08-23T03:39:35.018Z,15.35
2022-08-23T03:42:02.051Z,14.29
2022-08-23T03:44:28.733Z,14.75
2022-08-23T03:46:55.287Z,14.62
2022-08-23T03:49:22.099Z,14.78
2022-08-23T03:51:48.611Z,15.41
2022-08-23T03:54:15.427Z,14.33
2022-08-23T03:57:04.006Z,15.47
2022-08-23T03:59:33.741Z,13.74
2022-08-23T04:02:00.321Z,14.52
2022-08-23T04:04:27.765Z,15.23
2022-08-23T04:06:54.222Z,12.16
2022-08-23T04:09:23.079Z,12.21
2022-08-23T04:11:50.282Z,14.75
2022-08-23T04:14:16.754Z,14.99
2022-08-23T04:16:44.375Z,12.52
2022-08-23T04:19:13.943Z,15.45
2022-08-23T04:21:45.043Z,14.95
2022-08-23T04:24:12.002Z,15.32
2022-08-23T04:26:38.780Z,14.58
2022-08-23T04:29:05.438Z,14.54
2022-08-23T04:31:34.685Z,15.15
2022-08-23T04:34:02.296Z,12.56
2022-08-23T04:36:35.744Z,15.15
2022-08-23T04:39:03.261Z,14.82
2022-08-23T04:41:48.484Z,14.40
2022-08-23T04:44:15.896Z,15.11
2022-08-23T04:46:43.664Z,14.86
2022-08-23T04:49:11.591Z,15.38
2022-08-23T04:51:38.680Z,15.30
2022-08-23T04:54:05.521Z,15.49
2022-08-23T04:56:31.927Z,15.49
2022-08-23T04:59:02.014Z,14.76
2022-08-23T05:01:28.907Z,14.22
2022-08-23T05:03:55.923Z,15.55
2022-08-23T05:06:22.868Z,15.58
2022-08-23T05:08:49.267Z,14.15
2022-08-23T05:11:18.886Z,15.45
2022-08-23T05:13:45.418Z,13.87
2022-08-23T05:16:12.180Z,13.99
2022-08-23T05:18:38.725Z,15.99
2022-08-23T05:21:05.251Z,13.74
2022-08-23T05:23:32.526Z,15.87
2022-08-23T05:25:59.969Z,15.90
2022-08-23T05:28:32.050Z,15.01
2022-08-23T05:31:04.930Z,16.78
2022-08-23T05:33:33.378Z,16.73
2022-08-23T05:36:04.657Z,17.86
2022-08-23T05:38:31.414Z,18.59
2022-08-23T05:40:59.861Z,18.92
2022-08-23T05:43:26.600Z,17.79
2022-08-23T05:46:12.879Z,20.00
2022-08-23T05:48:41.673Z,20.23
2022-08-23T05:51:13.289Z,20.58
2022-08-23T05:53:41.395Z,18.54
2022-08-23T05:56:29.087Z,20.44
2022-08-23T05:59:01.168Z,20.55
2022-08-23T06:01:29.782Z,20.37
2022-08-23T06:03:59.917Z,19.52
2022-08-23T06:06:37.665Z,20.10
2022-08-23T06:09:06.544Z,21.25
2022-08-23T06:11:33.098Z,19.70
2022-08-23T06:14:02.716Z,20.88
2022-08-23T06:16:35.480Z,20.87
2022-08-23T06:19:02.870Z,20.63
2022-08-23T06:21:30.027Z,20.55
2022-08-23T06:23:59.345Z,20.75
2022-08-23T06:26:31.245Z,20.35
2022-08-23T06:29:04.005Z,20.24
2022-08-23T06:31:46.898Z,19.96
2022-08-23T06:34:22.567Z,20.16
2022-08-23T06:36:52.876Z,20.31
2022-08-23T06:39:21.030Z,20.19
2022-08-23T06:41:50.643Z,20.33
2022-08-23T06:44:19.010Z,20.78
2022-08-23T06:46:47.867Z,20.99
2022-08-23T06:49:14.625Z,20.81
2022-08-23T06:51:48.314Z,21.38
2022-08-23T06:54:16.504Z,20.98
2022-08-23T06:56:44.224Z,19.87
2022-08-23T06:59:12.213Z,19.85
2022-08-23T07:02:02.201Z,21.77
2022-08-23T07:04:32.519Z,20.55
2022-08-23T07:07:01.985Z,21.99
2022-08-23T07:09:31.637Z,18.49
2022-08-23T07:11:59.198Z,19.56
2022-08-23T07:14:26.799Z,20.50
2022-08-23T07:16:59.939Z,21.76
2022-08-23T07:19:29.407Z,22.33
2022-08-23T07:21:57.309Z,22.05
2022-08-23T07:24:23.961Z,22.44
2022-08-23T07:26:52.132Z,22.63
2022-08-23T07:29:21.071Z,22.17
2022-08-23T07:31:51.025Z,22.01
2022-08-23T07:34:18.746Z,22.17
2022-08-23T07:36:47.119Z,20.87
2022-08-23T07:39:14.374Z,20.88
2022-08-23T07:41:41.582Z,19.79
2022-08-23T07:44:09.907Z,21.89
2022-08-23T07:46:40.278Z,22.82
2022-08-23T07:49:08.764Z,22.80
2022-08-23T07:51:37.342Z,20.91
2022-08-23T07:54:08.498Z,21.85
2022-08-23T07:56:35.383Z,23.28
2022-08-23T07:59:02.472Z,23.00
2022-08-23T08:01:29.976Z,23.15
2022-08-23T08:03:59.428Z,23.52
2022-08-23T08:06:41.241Z,23.84
2022-08-23T08:09:09.064Z,24.01
2022-08-23T08:11:36.001Z,23.48
2022-08-23T08:14:08.382Z,24.19
2022-08-23T08:16:41.047Z,22.52
2022-08-23T08:19:11.170Z,24.45
2022-08-23T08:21:42.051Z,24.63
2022-08-23T08:24:11.328Z,24.45
2022-08-23T08:26:38.099Z,24.24
2022-08-23T08:29:05.989Z,24.59
2022-08-23T08:31:36.352Z,24.71
2022-08-23T08:34:02.932Z,24.59
2022-08-23T08:36:39.856Z,25.37
2022-08-23T08:39:10.510Z,25.54
2022-08-23T08:41:49.215Z,25.46
2022-08-23T08:44:53.615Z,25.25
2022-08-23T08:48:03.136Z,25.64
2022-08-23T08:50:37.562Z,25.66
2022-08-23T08:53:16.258Z,25.86
2022-08-23T08:55:53.031Z,25.45
2022-08-23T08:58:29.001Z,26.04
2022-08-23T09:00:56.845Z,26.25
2022-08-23T09:03:27.770Z,25.62
2022-08-23T09:06:15.914Z,26.02
2022-08-23T09:09:06.576Z,26.07
2022-08-23T09:11:50.827Z,26.30
2022-08-23T09:14:29.375Z,26.66
2022-08-23T09:17:05.560Z,25.08
2022-08-23T09:19:37.318Z,26.35
2022-08-23T09:22:13.680Z,26.50
2022-08-23T09:24:41.198Z,26.65
2022-08-23T09:27:11.563Z,26.88
2022-08-23T09:29:51.638Z,27.19
2022-08-23T09:32:41.170Z,27.43
2022-08-23T09:35:19.918Z,26.85
2022-08-23T09:38:00.936Z,27.38
2022-08-23T09:40:43.724Z,27.20
2022-08-23T09:43:19.299Z,27.33
2022-08-23T09:45:51.693Z,27.48
2022-08-23T09:48:51.082Z,27.15
2022-08-23T09:51:24.238Z,26.92
2022-08-23T09:54:04.394Z,27.25
2022-08-23T09:56:34.386Z,26.60
2022-08-23T09:59:01.639Z,27.41
2022-08-23T10:01:36.741Z,27.91
2022-08-23T10:04:17.625Z,28.00
2022-08-23T10:06:46.250Z,28.21
2022-08-23T10:09:27.590Z,27.81
2022-08-23T10:11:55.946Z,28.34
2022-08-23T10:14:27.358Z,28.42
2022-08-23T10:16:59.717Z,28.59
2022-08-23T10:19:32.236Z,28.70
2022-08-23T10:22:25.874Z,28.75
2022-08-23T10:25:07.583Z,28.63
2022-08-23T10:28:07.670Z,29.28
2022-08-23T10:30:44.777Z,28.95
2022-08-23T10:33:18.944Z,28.81
2022-08-23T10:36:12.976Z,28.94
2022-08-23T10:38:46.529Z,28.71
2022-08-23T10:41:21.806Z,28.77
2022-08-23T10:44:22.282Z,28.45
2022-08-23T10:47:13.910Z,28.33
2022-08-23T10:49:42.255Z,29.09
2022-08-23T10:52:13.910Z,29.55
2022-08-23T10:54:47.031Z,29.65
2022-08-23T10:57:16.706Z,29.52
2022-08-23T10:59:46.360Z,29.71
2022-08-23T11:02:42.764Z,29.79
2022-08-23T11:05:29.014Z,29.91
2022-08-23T11:08:12.458Z,30.20
2022-08-23T11:10:41.729Z,30.08
2022-08-23T11:13:27.260Z,29.49
2022-08-23T11:16:01.779Z,29.29
2022-08-23T11:18:34.097Z,29.73
2022-08-23T11:21:09.582Z,30.11
2022-08-23T11:23:38.509Z,30.25
2022-08-23T11:26:08.647Z,30.08
2022-08-23T11:28:42.352Z,30.56
2022-08-23T11:31:08.764Z,30.51
2022-08-23T11:34:02.974Z,29.98
2022-08-23T11:36:31.463Z,30.44
2022-08-23T11:38:57.966Z,30.55
2022-08-23T11:41:30.173Z,30.61
2022-08-23T11:43:56.651Z,30.63
2022-08-23T11:46:23.068Z,30.91
2022-08-23T11:49:27.589Z,31.06
2022-08-23T11:52:26.635Z,30.74
2022-08-23T11:55:07.025Z,31.09
2022-08-23T11:58:11.797Z,30.52
2022-08-23T12:01:06.631Z,30.67
2022-08-23T12:03:44.041Z,30.92
2022-08-23T12:06:18.610Z,30.80
2022-08-23T12:08:55.348Z,31.24
2022-08-23T12:11:24.925Z,31.05
2022-08-23T12:13:56.567Z,31.39
2022-08-23T12:16:24.083Z,30.87
2022-08-23T12:18:53.300Z,31.00
2022-08-23T12:21:22.219Z,29.67
2022-08-23T12:23:52.992Z,30.04
2022-08-23T12:26:35.253Z,32.05
2022-08-23T12:29:54.387Z,32.43
2022-08-23T12:32:44.323Z,32.35
2022-08-23T12:35:25.994Z,32.64
2022-08-23T12:38:29.307Z,32.35
2022-08-23T12:40:56.868Z,31.17
2022-08-23T12:43:28.059Z,31.55
2022-08-23T12:45:58.574Z,30.90
2022-08-23T12:48:29.728Z,31.58
2022-08-23T12:51:02.978Z,31.51
2022-08-23T12:53:44.026Z,31.27
2022-08-23T12:56:18.517Z,31.74
2022-08-23T12:58:49.091Z,32.12
2022-08-23T13:01:24.024Z,32.67
2022-08-23T13:03:59.382Z,31.04
2022-08-23T13:06:30.822Z,32.73
2022-08-23T13:09:08.137Z,32.73
2022-08-23T13:11:37.576Z,32.64
2022-08-23T13:14:24.612Z,32.68
2022-08-23T13:16:51.508Z,32.68
2022-08-23T13:19:28.618Z,32.68
2022-08-23T13:22:13.443Z,32.46
2022-08-23T13:24:43.140Z,32.31
2022-08-23T13:27:17.497Z,31.83
2022-08-23T13:30:05.905Z,32.03
2022-08-23T13:32:35.343Z,31.99
2022-08-23T13:35:36.197Z,31.71
2022-08-23T13:38:18.266Z,31.41
2022-08-23T13:40:50.241Z,31.31
2022-08-23T13:43:24.277Z,29.79
2022-08-23T13:45:55.135Z,31.19
2022-08-23T13:48:23.442Z,30.88
2022-08-23T13:50:50.740Z,29.85
2022-08-23T13:53:17.622Z,30.14
2022-08-23T13:55:55.749Z,30.84
2022-08-23T13:58:31.558Z,30.20
2022-08-23T14:01:00.670Z,30.79
2022-08-23T14:03:28.698Z,30.06
2022-08-23T14:05:55.224Z,31.17
2022-08-23T14:08:22.153Z,31.24
2022-08-23T14:10:49.323Z,31.24
2022-08-23T14:13:17.786Z,31.75
2022-08-23T14:18:32.457Z,31.15
2022-08-23T14:20:59.322Z,31.53
2022-08-23T14:23:25.899Z,30.76
2022-08-23T14:25:56.037Z,31.76
2022-08-23T14:28:25.197Z,31.58
2022-08-23T14:30:51.753Z,31.28
2022-08-23T14:33:21.613Z,31.13
2022-08-23T14:35:49.248Z,30.43
2022-08-23T14:38:17.976Z,30.80
2022-08-23T14:40:53.484Z,30.83
2022-08-23T14:43:21.714Z,30.98
2022-08-23T14:45:48.925Z,31.60
2022-08-23T14:48:15.588Z,31.08
2022-08-23T14:50:42.490Z,31.16
2022-08-23T14:53:10.122Z,30.34
2022-08-23T14:55:36.723Z,30.06
2022-08-23T14:58:04.167Z,30.54
2022-08-23T15:00:32.458Z,30.46
2022-08-23T15:02:59.493Z,30.42
2022-08-23T15:05:25.964Z,29.78
2022-08-23T15:07:52.453Z,29.48
2022-08-23T15:13:27.374Z,30.28
2022-08-23T15:15:53.442Z,31.10
2022-08-23T15:18:20.132Z,31.37
2022-08-23T15:20:46.966Z,31.10
2022-08-23T15:23:13.973Z,31.49
2022-08-23T15:25:42.428Z,31.27
2022-08-23T15:28:13.192Z,31.46
2022-08-23T15:30:41.065Z,31.20
2022-08-23T15:33:10.140Z,31.26
2022-08-23T15:35:41.722Z,31.22
2022-08-23T15:38:09.958Z,31.00
2022-08-23T15:40:37.244Z,30.86
2022-08-23T15:43:04.287Z,30.34
2022-08-23T15:45:33.321Z,30.30
2022-08-23T15:48:01.879Z,30.15
2022-08-23T15:50:32.950Z,30.52
2022-08-23T15:53:00.454Z,30.08
2022-08-23T15:55:32.380Z,29.15
2022-08-23T15:57:59.938Z,30.01
2022-08-23T16:00:27.613Z,29.96
2022-08-23T16:03:18.429Z,30.33
2022-08-23T16:05:44.648Z,30.35
2022-08-23T16:08:22.775Z,29.96
2022-08-23T16:10:49.738Z,29.62
2022-08-23T16:13:16.298Z,28.70
2022-08-23T16:15:42.919Z,29.50
2022-08-23T16:18:10.099Z,29.69
2022-08-23T16:20:36.484Z,29.36
2022-08-23T16:23:03.217Z,29.19
2022-08-23T16:25:29.939Z,28.94
2022-08-23T16:27:56.669Z,29.04
2022-08-23T16:30:23.967Z,28.82
2022-08-23T16:32:50.502Z,28.18
2022-08-23T16:35:18.227Z,28.75
2022-08-23T16:37:44.601Z,28.36
2022-08-23T16:40:12.030Z,29.17
2022-08-23T16:42:38.479Z,28.94
2022-08-23T16:45:05.666Z,28.68
2022-08-23T16:47:36.124Z,28.68
2022-08-23T16:50:05.845Z,28.34
2022-08-23T16:52:34.283Z,28.49
2022-08-23T16:55:03.691Z,28.68
2022-08-23T16:57:30.176Z,26.51
2022-08-23T16:59:56.737Z,27.93
2022-08-23T17:02:30.468Z,28.21
2022-08-23T17:04:57.859Z,28.58
2022-08-23T17:07:24.754Z,28.24
2022-08-23T17:09:51.245Z,28.07
2022-08-23T17:12:18.993Z,28.17
2022-08-23T17:14:46.286Z,28.33
2022-08-23T17:17:13.034Z,27.93
2022-08-23T17:19:39.828Z,26.93
2022-08-23T17:22:06.219Z,27.85
2022-08-23T17:24:35.086Z,28.04
2022-08-23T17:27:01.785Z,27.30
2022-08-23T17:29:28.179Z,28.00
2022-08-23T17:32:00.796Z,27.99
2022-08-23T17:34:27.455Z,27.72
2022-08-23T17:36:55.109Z,26.18
2022-08-23T17:39:24.839Z,27.97
2022-08-23T17:41:51.331Z,27.68
2022-08-23T17:44:17.883Z,27.80
2022-08-23T17:46:45.945Z,27.16
2022-08-23T17:49:14.341Z,26.79
2022-08-23T17:51:41.533Z,27.62
2022-08-23T17:54:10.062Z,26.06
2022-08-23T17:56:37.898Z,27.40
2022-08-23T17:59:07.434Z,25.67
2022-08-23T18:01:34.308Z,25.66
2022-08-23T18:04:04.731Z,25.78
2022-08-23T18:06:32.252Z,26.67
2022-08-23T18:08:58.926Z,26.60
2022-08-23T18:11:25.420Z,25.67
2022-08-23T18:13:51.913Z,24.32
2022-08-23T18:16:18.446Z,26.35
2022-08-23T18:18:44.929Z,26.45
2022-08-23T18:21:14.462Z,25.54
2022-08-23T18:23:41.476Z,26.54
2022-08-23T18:26:29.882Z,26.45
2022-08-23T18:28:56.888Z,26.36
2022-08-23T18:31:23.592Z,26.27
2022-08-23T18:33:50.216Z,25.75
2022-08-23T18:36:16.832Z,25.62
2022-08-23T18:38:43.218Z,25.35
2022-08-23T18:41:09.718Z,25.83
2022-08-23T18:43:37.690Z,25.70
2022-08-23T18:46:04.934Z,25.43
2022-08-23T18:48:31.469Z,25.47
2022-08-23T18:51:01.356Z,24.88
2022-08-23T18:53:28.065Z,24.87
2022-08-23T18:55:54.862Z,24.42
2022-08-23T18:58:21.509Z,25.04
2022-08-23T19:00:50.606Z,24.49
2022-08-23T19:03:17.717Z,24.82
2022-08-23T19:05:44.850Z,24.31
2022-08-23T19:08:12.644Z,24.24
2022-08-23T19:10:40.598Z,24.53
2022-08-23T19:13:08.920Z,23.70
2022-08-23T19:15:36.915Z,24.38
2022-08-23T19:18:04.549Z,24.29
2022-08-23T19:20:31.063Z,23.84
2022-08-23T19:22:57.653Z,21.75
2022-08-23T19:25:24.378Z,23.35
2022-08-23T19:27:50.862Z,23.25
2022-08-23T19:30:17.798Z,23.23
2022-08-23T19:32:45.113Z,22.64
2022-08-23T19:35:13.692Z,22.34
2022-08-23T19:37:40.182Z,23.33
2022-08-23T19:40:07.373Z,23.60
2022-08-23T19:42:36.903Z,22.94
2022-08-23T19:45:07.704Z,23.02
2022-08-23T19:47:34.818Z,23.43
2022-08-23T19:50:04.772Z,23.37
2022-08-23T19:52:31.425Z,22.63
2022-08-23T19:55:07.182Z,23.28
2022-08-23T19:57:35.339Z,23.27
2022-08-23T20:00:09.508Z,23.23
2022-08-23T20:02:36.041Z,20.83
2022-08-23T20:05:02.715Z,21.50
2022-08-23T20:07:29.358Z,21.33
2022-08-23T20:10:00.722Z,23.10
2022-08-23T20:12:28.850Z,20.37
2022-08-23T20:14:55.906Z,23.04
2022-08-23T20:17:23.265Z,20.93
2022-08-23T20:19:49.729Z,22.73
2022-08-23T20:22:34.548Z,22.39
2022-08-23T20:25:01.730Z,22.52
2022-08-23T20:27:31.112Z,22.35
2022-08-23T20:30:02.603Z,22.18
2022-08-23T20:32:30.184Z,21.40
2022-08-23T20:34:57.113Z,21.30
2022-08-23T20:37:23.632Z,21.44
2022-08-23T20:39:50.060Z,21.86
2022-08-23T20:42:16.593Z,22.00
2022-08-23T20:44:43.179Z,22.17
2022-08-23T20:47:10.019Z,21.45
2022-08-23T20:49:36.645Z,19.86
2022-08-23T20:52:04.595Z,21.88
2022-08-23T20:54:31.573Z,20.40
2022-08-23T20:57:01.047Z,22.28
2022-08-23T20:59:27.795Z,21.78
2022-08-23T21:01:54.421Z,21.79
2022-08-23T21:04:21.442Z,19.37
2022-08-23T21:06:59.094Z,22.15
2022-08-23T21:09:28.985Z,22.09
2022-08-23T21:11:57.319Z,21.42
2022-08-23T21:14:24.195Z,21.95
2022-08-23T21:16:50.745Z,21.65
2022-08-23T21:19:17.475Z,20.40
2022-08-23T21:21:43.900Z,20.65
2022-08-23T21:24:11.392Z,21.78
2022-08-23T21:26:38.913Z,21.45
2022-08-23T21:29:07.639Z,21.71
2022-08-23T21:31:34.768Z,19.03
2022-08-23T21:34:01.822Z,19.95
2022-08-23T21:36:28.636Z,21.18
2022-08-23T21:38:55.567Z,20.47
2022-08-23T21:41:38.708Z,19.43
2022-08-23T21:44:09.071Z,20.10
2022-08-23T21:46:35.984Z,20.81
2022-08-23T21:49:03.215Z,20.82
2022-08-23T21:51:29.778Z,19.68
2022-08-23T21:53:56.935Z,19.80
2022-08-23T21:56:24.015Z,19.88
2022-08-23T21:58:54.611Z,16.27
2022-08-23T22:01:21.074Z,20.35
2022-08-23T22:03:47.562Z,20.14
2022-08-23T22:06:17.273Z,20.79
2022-08-23T22:08:45.386Z,20.28
2022-08-23T22:11:14.182Z,20.62
2022-08-23T22:13:42.012Z,20.46
2022-08-23T22:16:09.596Z,20.91
2022-08-23T22:18:36.269Z,20.37
2022-08-23T22:21:03.262Z,20.31
2022-08-23T22:23:31.341Z,19.07
2022-08-23T22:26:02.892Z,20.72
2022-08-23T22:28:32.465Z,16.59
2022-08-23T22:31:01.805Z,20.67
2022-08-23T22:33:29.058Z,19.89
2022-08-23T22:36:08.442Z,20.36
2022-08-23T22:38:35.287Z,18.97
2022-08-23T22:41:01.790Z,17.72
2022-08-23T22:43:28.406Z,20.62
2022-08-23T22:46:00.729Z,19.93
2022-08-23T22:48:29.188Z,20.54
2022-08-23T22:51:17.534Z,20.55
2022-08-23T22:53:47.362Z,19.86
2022-08-23T22:56:20.343Z,19.85
2022-08-23T22:58:49.871Z,20.44
2022-08-23T23:01:25.660Z,20.00
2022-08-23T23:03:53.196Z,20.35
2022-08-23T23:06:21.138Z,20.32
2022-08-23T23:08:48.096Z,20.29
2022-08-23T23:11:17.194Z,20.24
2022-08-23T23:13:43.646Z,19.40
2022-08-23T23:16:15.773Z,20.17
2022-08-23T23:19:04.109Z,19.46
2022-08-23T23:21:42.394Z,19.64
2022-08-23T23:24:10.968Z,19.66
2022-08-23T23:26:37.852Z,19.57
2022-08-23T23:29:08.299Z,19.63
2022-08-23T23:31:36.115Z,19.98
2022-08-23T23:34:03.081Z,19.03
2022-08-23T23:36:29.532Z,19.42
2022-08-23T23:38:56.465Z,18.92
2022-08-23T23:41:22.993Z,19.05
2022-08-23T23:43:49.529Z,17.73
2022-08-23T23:46:19.550Z,18.98
2022-08-23T23:48:47.966Z,19.46
2022-08-23T23:51:18.073Z,17.52
2022-08-23T23:53:44.711Z,19.05
2022-08-23T23:56:14.003Z,19.51
2022-08-23T23:58:40.922Z,19.18
